createdAt,value
2023-01-23T00:00:16.773Z,2.24
2023-01-23T00:02:20.034Z,2.23
2023-01-23T00:04:22.920Z,2.25
2023-01-23T00:06:27.035Z,2.24
2023-01-23T00:08:30.202Z,2.33
2023-01-23T00:10:32.936Z,2.23
2023-01-23T00:12:35.733Z,2.23
2023-01-23T00:14:39.926Z,2.33
2023-01-23T00:16:42.735Z,2.23
2023-01-23T00:18:46.419Z,2.27
2023-01-23T00:20:49.308Z,2.21
2023-01-23T00:22:52.183Z,2.24
2023-01-23T00:24:54.933Z,2.24
2023-01-23T00:26:57.768Z,2.33
2023-01-23T00:29:00.689Z,2.26
2023-01-23T00:31:06.217Z,2.25
2023-01-23T00:33:09.217Z,2.26
2023-01-23T00:35:12.073Z,2.23
2023-01-23T00:37:16.556Z,2.21
2023-01-23T00:39:22.091Z,2.25
2023-01-23T00:41:25.403Z,2.31
2023-01-23T00:43:29.520Z,2.22
2023-01-23T00:45:32.379Z,2.19
2023-01-23T00:47:36.555Z,2.25
2023-01-23T00:49:39.535Z,2.29
2023-01-23T00:51:42.358Z,2.36
2023-01-23T00:53:45.473Z,2.35
2023-01-23T00:55:48.294Z,2.38
2023-01-23T00:57:51.224Z,2.33
2023-01-23T00:59:54.088Z,2.35
2023-01-23T01:01:56.982Z,2.35
2023-01-23T01:04:01.489Z,2.24
2023-01-23T01:06:05.201Z,2.26
2023-01-23T01:08:08.020Z,2.22
2023-01-23T01:10:12.149Z,2.18
2023-01-23T01:12:15.133Z,2.16
2023-01-23T01:14:18.020Z,2.20
2023-01-23T01:16:24.257Z,2.18
2023-01-23T01:18:27.140Z,2.18
2023-01-23T01:20:31.723Z,2.21
2023-01-23T01:22:35.022Z,2.20
2023-01-23T01:24:37.808Z,2.21
2023-01-23T01:26:41.103Z,2.15
2023-01-23T01:28:43.932Z,2.17
2023-01-23T01:30:46.793Z,2.14
2023-01-23T01:32:50.749Z,2.23
2023-01-23T01:34:53.773Z,2.19
2023-01-23T01:36:57.930Z,2.16
2023-01-23T01:39:00.709Z,2.16
2023-01-23T01:41:03.727Z,2.11
2023-01-23T01:43:09.485Z,2.11
2023-01-23T01:45:50.187Z,2.07
2023-01-23T01:47:53.006Z,2.09
2023-01-23T01:50:00.720Z,2.14
2023-01-23T01:52:07.735Z,2.16
2023-01-23T01:54:21.059Z,2.16
2023-01-23T01:56:26.752Z,2.21
2023-01-23T01:58:30.607Z,2.19
2023-01-23T02:00:33.753Z,2.11
2023-01-23T02:02:38.979Z,2.07
2023-01-23T02:04:46.028Z,2.14
2023-01-23T02:06:50.504Z,2.13
2023-01-23T02:09:01.611Z,2.16
2023-01-23T02:11:05.168Z,2.17
2023-01-23T02:13:30.294Z,2.31
2023-01-23T02:15:33.128Z,2.31
2023-01-23T02:17:38.146Z,2.35
2023-01-23T02:19:45.104Z,2.33
2023-01-23T02:21:51.254Z,2.32
2023-01-23T02:24:11.838Z,2.34
2023-01-23T02:26:19.210Z,2.35
2023-01-23T02:28:22.117Z,2.32
2023-01-23T02:30:26.352Z,2.33
2023-01-23T02:32:30.665Z,2.36
2023-01-23T02:34:33.612Z,2.29
2023-01-23T02:36:37.424Z,2.27
2023-01-23T02:38:51.035Z,2.44
2023-01-23T02:40:56.553Z,2.38
2023-01-23T02:43:05.656Z,2.50
2023-01-23T02:45:10.321Z,2.47
2023-01-23T02:47:13.333Z,2.41
2023-01-23T02:49:17.441Z,2.44
2023-01-23T02:51:20.927Z,2.34
2023-01-23T02:53:24.261Z,2.32
2023-01-23T02:55:30.064Z,2.33
2023-01-23T02:57:32.702Z,2.27
2023-01-23T02:59:54.375Z,2.29
2023-01-23T03:01:57.578Z,2.24
2023-01-23T03:04:04.020Z,2.23
2023-01-23T03:06:08.337Z,2.26
2023-01-23T03:08:11.185Z,2.24
2023-01-23T03:10:14.617Z,2.21
2023-01-23T03:12:20.406Z,2.24
2023-01-23T03:14:24.253Z,2.30
2023-01-23T03:16:30.101Z,2.30
2023-01-23T03:18:37.901Z,2.27
2023-01-23T03:20:46.101Z,2.20
2023-01-23T03:22:48.963Z,2.16
2023-01-23T03:24:51.923Z,2.21
2023-01-23T03:26:54.852Z,2.27
2023-01-23T03:29:18.929Z,2.26
2023-01-23T03:31:21.789Z,2.36
2023-01-23T03:33:25.922Z,2.32
2023-01-23T03:35:28.754Z,2.20
2023-01-23T03:37:31.890Z,2.17
2023-01-23T03:39:53.315Z,2.36
2023-01-23T03:41:56.009Z,2.27
2023-01-23T03:44:01.438Z,2.22
2023-01-23T03:46:04.499Z,2.27
2023-01-23T03:48:08.001Z,2.21
2023-01-23T03:50:13.058Z,2.19
2023-01-23T03:52:16.172Z,2.19
2023-01-23T03:54:19.274Z,2.24
2023-01-23T03:56:22.088Z,2.18
2023-01-23T03:58:26.020Z,2.23
2023-01-23T04:00:28.863Z,2.30
2023-01-23T04:02:36.492Z,2.18
2023-01-23T04:04:39.558Z,2.18
2023-01-23T04:06:45.623Z,2.32
2023-01-23T04:08:48.454Z,2.16
2023-01-23T04:10:51.319Z,2.25
2023-01-23T04:12:54.354Z,2.19
2023-01-23T04:14:57.527Z,2.20
2023-01-23T04:17:00.430Z,2.19
2023-01-23T04:19:03.219Z,2.19
2023-01-23T04:21:06.358Z,2.15
2023-01-23T04:23:10.650Z,2.26
2023-01-23T04:25:13.815Z,2.19
2023-01-23T04:27:16.789Z,2.25
2023-01-23T04:29:19.907Z,2.24
2023-01-23T04:31:23.148Z,2.38
2023-01-23T04:33:26.530Z,2.20
2023-01-23T04:35:30.281Z,2.23
2023-01-23T04:37:33.123Z,2.26
2023-01-23T04:39:37.328Z,2.15
2023-01-23T04:41:40.139Z,2.06
2023-01-23T04:43:55.339Z,2.07
2023-01-23T04:45:59.255Z,2.07
2023-01-23T04:48:37.286Z,2.29
2023-01-23T04:50:41.089Z,2.21
2023-01-23T04:52:44.406Z,2.17
2023-01-23T04:54:48.627Z,2.12
2023-01-23T04:56:53.579Z,2.03
2023-01-23T04:58:56.970Z,2.09
2023-01-23T05:01:03.712Z,2.13
2023-01-23T05:03:08.970Z,2.11
2023-01-23T05:05:13.400Z,2.11
2023-01-23T05:07:16.561Z,2.07
2023-01-23T05:09:36.246Z,2.19
2023-01-23T05:11:40.447Z,2.20
2023-01-23T05:13:45.672Z,2.19
2023-01-23T05:15:49.413Z,2.03
2023-01-23T05:17:52.988Z,2.09
2023-01-23T05:19:56.573Z,2.18
2023-01-23T05:21:59.398Z,2.16
2023-01-23T05:24:02.546Z,2.22
2023-01-23T05:26:06.263Z,2.21
2023-01-23T05:28:11.787Z,2.13
2023-01-23T05:30:23.140Z,2.12
2023-01-23T05:32:29.188Z,2.25
2023-01-23T05:34:44.973Z,2.15
2023-01-23T05:36:54.838Z,2.16
2023-01-23T05:38:58.023Z,2.19
2023-01-23T05:41:03.977Z,2.05
2023-01-23T05:43:26.557Z,2.04
2023-01-23T05:45:55.323Z,2.11
2023-01-23T05:48:08.229Z,2.14
2023-01-23T05:50:16.160Z,2.19
2023-01-23T05:52:21.696Z,2.19
2023-01-23T05:54:24.687Z,2.21
2023-01-23T05:56:29.127Z,2.17
2023-01-23T05:58:51.749Z,2.24
2023-01-23T06:01:02.573Z,2.26
2023-01-23T06:03:23.956Z,2.24
2023-01-23T06:05:44.830Z,2.23
2023-01-23T06:07:53.332Z,2.26
2023-01-23T06:09:56.161Z,2.23
2023-01-23T06:11:59.272Z,2.27
2023-01-23T06:14:03.602Z,2.23
2023-01-23T06:16:10.373Z,2.21
2023-01-23T06:18:13.983Z,2.30
2023-01-23T06:20:17.340Z,2.23
2023-01-23T06:22:22.021Z,2.28
2023-01-23T06:24:41.440Z,2.26
2023-01-23T06:26:44.694Z,2.16
2023-01-23T06:28:48.101Z,2.20
2023-01-23T06:30:52.423Z,2.20
2023-01-23T06:33:02.821Z,2.23
2023-01-23T06:35:11.366Z,2.26
2023-01-23T06:37:17.192Z,2.19
2023-01-23T06:39:21.318Z,2.20
2023-01-23T06:41:26.453Z,2.14
2023-01-23T06:43:30.205Z,2.20
2023-01-23T06:45:33.187Z,2.14
2023-01-23T06:47:37.458Z,2.18
2023-01-23T06:49:40.537Z,2.15
2023-01-23T06:51:43.340Z,2.19
2023-01-23T06:53:48.205Z,2.21
2023-01-23T06:55:51.971Z,2.19
2023-01-23T06:57:54.894Z,2.13
2023-01-23T06:59:57.736Z,2.14
2023-01-23T07:02:00.635Z,2.20
2023-01-23T07:04:16.546Z,2.06
2023-01-23T07:06:20.508Z,2.08
2023-01-23T07:08:23.535Z,2.14
2023-01-23T07:10:27.994Z,2.07
2023-01-23T07:12:31.058Z,2.01
2023-01-23T07:14:34.044Z,1.97
2023-01-23T07:16:37.160Z,1.97
2023-01-23T07:18:41.137Z,2.07
2023-01-23T07:20:47.490Z,2.07
2023-01-23T07:22:51.257Z,1.99
2023-01-23T07:24:54.071Z,2.01
2023-01-23T07:26:56.832Z,2.00
2023-01-23T07:29:00.188Z,2.07
2023-01-23T07:31:03.914Z,2.11
2023-01-23T07:33:07.210Z,2.15
2023-01-23T07:35:10.769Z,2.20
2023-01-23T07:37:14.957Z,2.18
2023-01-23T07:39:17.719Z,2.23
2023-01-23T07:41:20.504Z,2.18
2023-01-23T07:43:23.382Z,2.13
2023-01-23T07:45:26.152Z,2.08
2023-01-23T07:47:28.975Z,2.06
2023-01-23T07:49:31.710Z,2.13
2023-01-23T07:51:35.439Z,2.14
2023-01-23T07:53:39.558Z,2.11
2023-01-23T07:55:42.412Z,2.19
2023-01-23T07:57:45.170Z,2.18
2023-01-23T07:59:48.765Z,2.36
2023-01-23T08:01:52.515Z,2.30
2023-01-23T08:03:55.539Z,2.29
2023-01-23T08:05:59.594Z,2.41
2023-01-23T08:08:13.120Z,2.52
2023-01-23T08:10:19.195Z,2.48
2023-01-23T08:12:22.307Z,2.56
2023-01-23T08:14:25.117Z,2.62
2023-01-23T08:16:28.036Z,2.54
2023-01-23T08:18:31.843Z,2.58
2023-01-23T08:20:34.634Z,2.50
2023-01-23T08:22:40.624Z,2.64
2023-01-23T08:24:43.465Z,2.62
2023-01-23T08:26:47.661Z,2.62
2023-01-23T08:28:50.431Z,2.67
2023-01-23T08:30:54.191Z,2.69
2023-01-23T08:32:57.109Z,2.61
2023-01-23T08:34:59.886Z,2.69
2023-01-23T08:37:02.808Z,2.65
2023-01-23T08:39:05.607Z,2.71
2023-01-23T08:41:09.919Z,2.82
2023-01-23T08:43:14.569Z,2.84
2023-01-23T08:45:17.643Z,2.88
2023-01-23T08:47:20.419Z,2.84
2023-01-23T08:49:23.247Z,2.79
2023-01-23T08:51:27.188Z,2.83
2023-01-23T08:53:30.157Z,2.73
2023-01-23T08:55:35.511Z,2.67
2023-01-23T08:57:38.315Z,2.68
2023-01-23T08:59:44.209Z,2.64
2023-01-23T09:01:47.991Z,2.66
2023-01-23T09:03:51.185Z,2.83
2023-01-23T09:05:54.041Z,2.77
2023-01-23T09:08:01.624Z,2.82
2023-01-23T09:10:05.136Z,2.75
2023-01-23T09:12:08.248Z,2.78
2023-01-23T09:14:11.045Z,2.78
2023-01-23T09:16:15.822Z,2.78
2023-01-23T09:18:18.949Z,2.83
2023-01-23T09:20:22.042Z,2.88
2023-01-23T09:22:24.989Z,2.85
2023-01-23T09:24:27.752Z,2.87
2023-01-23T09:26:30.680Z,2.96
2023-01-23T09:28:33.558Z,2.95
2023-01-23T09:30:36.898Z,3.08
2023-01-23T09:32:41.239Z,3.08
2023-01-23T09:34:44.065Z,3.09
2023-01-23T09:36:46.924Z,3.02
2023-01-23T09:38:50.042Z,3.08
2023-01-23T09:40:55.759Z,3.11
2023-01-23T09:43:03.749Z,3.08
2023-01-23T09:45:08.771Z,3.17
2023-01-23T09:47:14.145Z,3.16
2023-01-23T09:49:26.159Z,3.13
2023-01-23T09:51:36.392Z,3.07
2023-01-23T09:53:42.466Z,3.06
2023-01-23T09:55:49.939Z,3.04
2023-01-23T09:57:55.700Z,3.16
2023-01-23T10:00:06.648Z,3.20
2023-01-23T10:02:16.187Z,3.21
2023-01-23T10:04:21.826Z,3.32
2023-01-23T10:06:26.354Z,3.19
2023-01-23T10:08:38.560Z,3.21
2023-01-23T10:10:54.288Z,3.16
2023-01-23T10:13:05.902Z,3.23
2023-01-23T10:15:20.802Z,3.31
2023-01-23T10:17:30.893Z,3.38
2023-01-23T10:19:48.868Z,3.26
2023-01-23T10:21:56.349Z,3.40
2023-01-23T10:24:05.701Z,3.30
2023-01-23T10:26:15.465Z,3.22
2023-01-23T10:28:30.953Z,3.12
2023-01-23T10:30:37.906Z,3.18
2023-01-23T10:32:49.431Z,3.23
2023-01-23T10:35:01.058Z,3.21
2023-01-23T10:37:14.500Z,3.19
2023-01-23T10:39:22.800Z,3.13
2023-01-23T10:41:25.787Z,3.09
2023-01-23T10:43:28.673Z,3.14
2023-01-23T10:45:32.179Z,3.13
2023-01-23T10:47:38.790Z,3.15
2023-01-23T10:49:46.259Z,3.22
2023-01-23T10:51:50.623Z,3.29
2023-01-23T10:54:31.270Z,3.31
2023-01-23T10:56:36.729Z,3.36
2023-01-23T10:58:41.786Z,3.30
2023-01-23T11:00:47.413Z,3.35
2023-01-23T11:02:50.509Z,3.46
2023-01-23T11:04:53.675Z,3.53
2023-01-23T11:07:08.348Z,3.41
2023-01-23T11:09:21.253Z,3.40
2023-01-23T11:11:26.379Z,3.24
2023-01-23T11:13:30.807Z,3.30
2023-01-23T11:15:35.574Z,3.35
2023-01-23T11:17:39.208Z,3.48
2023-01-23T11:19:43.284Z,3.49
2023-01-23T11:21:56.036Z,3.55
2023-01-23T11:24:38.072Z,3.52
2023-01-23T11:26:42.391Z,3.47
2023-01-23T11:28:50.933Z,3.41
2023-01-23T11:31:12.480Z,3.28
2023-01-23T11:33:34.235Z,3.42
2023-01-23T11:35:56.972Z,3.33
2023-01-23T11:38:03.065Z,3.46
2023-01-23T11:40:13.179Z,3.49
2023-01-23T11:42:18.433Z,3.45
2023-01-23T11:44:24.384Z,3.45
2023-01-23T11:46:46.476Z,3.36
2023-01-23T11:49:01.285Z,3.54
2023-01-23T11:51:12.410Z,3.57
2023-01-23T11:53:30.695Z,3.59
2023-01-23T11:56:00.884Z,3.44
2023-01-23T11:58:14.785Z,3.53
2023-01-23T12:00:26.272Z,3.42
2023-01-23T12:03:01.092Z,3.48
2023-01-23T12:05:21.784Z,3.45
2023-01-23T12:07:26.083Z,3.52
2023-01-23T12:09:38.643Z,3.43
2023-01-23T12:11:55.734Z,3.56
2023-01-23T12:14:08.383Z,3.62
2023-01-23T12:16:22.013Z,3.62
2023-01-23T12:18:40.409Z,3.56
2023-01-23T12:20:54.012Z,3.53
2023-01-23T12:23:29.492Z,3.49
2023-01-23T12:25:36.636Z,3.49
2023-01-23T12:27:44.343Z,3.63
2023-01-23T12:30:07.345Z,3.62
2023-01-23T12:32:48.238Z,3.60
2023-01-23T12:35:05.916Z,3.62
2023-01-23T12:37:30.687Z,3.66
2023-01-23T12:40:12.449Z,3.57
2023-01-23T12:42:22.758Z,3.70
2023-01-23T12:44:33.171Z,3.75
2023-01-23T12:46:42.917Z,3.71
2023-01-23T12:48:50.886Z,3.62
2023-01-23T12:51:01.672Z,3.65
2023-01-23T12:53:09.889Z,3.70
2023-01-23T12:55:21.969Z,3.69
2023-01-23T13:00:01.720Z,3.57
2023-01-23T13:02:11.246Z,3.62
2023-01-23T13:04:24.026Z,3.58
2023-01-23T13:06:48.789Z,3.56
2023-01-23T13:09:05.495Z,3.61
2023-01-23T13:11:40.493Z,3.61
2023-01-23T13:13:46.127Z,3.78
2023-01-23T13:16:06.240Z,3.67
2023-01-23T13:18:24.092Z,3.70
2023-01-23T13:20:48.737Z,3.57
2023-01-23T13:22:52.212Z,3.65
2023-01-23T13:25:12.629Z,3.59
2023-01-23T13:27:35.656Z,3.57
2023-01-23T13:29:50.866Z,3.60
2023-01-23T13:32:22.935Z,3.61
2023-01-23T13:34:43.430Z,3.49
2023-01-23T13:36:47.166Z,3.59
2023-01-23T13:39:21.974Z,3.58
2023-01-23T13:41:31.751Z,3.64
2023-01-23T13:43:44.715Z,3.67
2023-01-23T13:45:50.562Z,3.71
2023-01-23T14:20:21.435Z,3.81
2023-01-23T14:22:28.903Z,3.94
2023-01-23T14:24:44.443Z,3.91
2023-01-23T14:26:50.463Z,3.75
2023-01-23T14:28:55.399Z,3.90
2023-01-23T14:30:59.495Z,3.88
2023-01-23T14:33:02.395Z,3.95
2023-01-23T14:35:17.203Z,4.01
2023-01-23T14:37:21.610Z,3.98
2023-01-23T14:39:28.602Z,4.00
2023-01-23T14:41:36.547Z,3.95
2023-01-23T14:43:45.228Z,3.96
2023-01-23T14:45:50.317Z,3.92
2023-01-23T14:48:05.294Z,3.73
2023-01-23T14:50:11.863Z,3.92
2023-01-23T14:52:23.699Z,3.83
2023-01-23T14:54:31.795Z,3.79
2023-01-23T14:56:38.363Z,3.94
2023-01-23T14:58:41.856Z,3.99
2023-01-23T15:00:46.744Z,4.01
2023-01-23T15:02:51.206Z,3.82
2023-01-23T15:05:20.317Z,3.83
2023-01-23T15:07:24.887Z,3.87
2023-01-23T15:09:31.317Z,3.92
2023-01-23T15:11:35.003Z,3.90
2023-01-23T15:13:44.094Z,3.82
2023-01-23T15:15:53.217Z,3.84
2023-01-23T15:17:57.449Z,3.92
2023-01-23T15:20:00.300Z,3.82
2023-01-23T15:22:07.653Z,3.76
2023-01-23T15:24:29.814Z,3.86
2023-01-23T15:26:35.449Z,3.80
2023-01-23T15:28:43.026Z,3.80
2023-01-23T15:30:48.383Z,3.76
2023-01-23T15:32:51.271Z,3.77
2023-01-23T15:34:57.447Z,3.73
2023-01-23T15:37:06.609Z,3.64
2023-01-23T15:39:18.961Z,3.65
2023-01-23T15:41:40.483Z,3.73
2023-01-23T15:43:43.289Z,3.60
2023-01-23T15:45:46.388Z,3.66
2023-01-23T15:47:49.742Z,3.70
2023-01-23T15:49:52.576Z,3.65
2023-01-23T15:52:02.256Z,3.64
2023-01-23T15:54:07.408Z,3.64
2023-01-23T15:56:17.241Z,3.70
2023-01-23T15:58:21.444Z,3.63
2023-01-23T16:00:26.507Z,3.65
2023-01-23T16:02:31.596Z,3.64
2023-01-23T16:04:35.345Z,3.53
2023-01-23T16:06:39.558Z,3.63
2023-01-23T16:08:42.386Z,3.57
2023-01-23T16:10:45.278Z,3.52
2023-01-23T16:12:49.809Z,3.49
2023-01-23T16:14:54.118Z,3.58
2023-01-23T16:17:04.717Z,3.57
2023-01-23T16:19:14.532Z,3.49
2023-01-23T16:21:18.967Z,3.47
2023-01-23T16:23:24.660Z,3.60
2023-01-23T16:25:42.938Z,3.48
2023-01-23T16:27:46.679Z,3.50
2023-01-23T16:29:50.159Z,3.49
2023-01-23T16:31:54.957Z,3.47
2023-01-23T16:33:58.343Z,3.46
2023-01-23T16:36:01.413Z,3.45
2023-01-23T16:38:04.534Z,3.51
2023-01-23T16:40:14.859Z,3.51
2023-01-23T16:42:21.454Z,3.47
2023-01-23T16:44:24.825Z,3.46
2023-01-23T16:46:27.663Z,3.45
2023-01-23T16:48:31.856Z,3.45
2023-01-23T16:50:37.089Z,3.45
2023-01-23T16:52:40.949Z,3.42
2023-01-23T16:54:44.704Z,3.50
2023-01-23T16:56:50.854Z,3.48
2023-01-23T16:58:53.688Z,3.47
2023-01-23T17:01:02.372Z,3.55
2023-01-23T17:03:09.141Z,3.52
2023-01-23T17:05:13.353Z,3.48
2023-01-23T17:07:17.413Z,3.38
2023-01-23T17:09:20.364Z,3.43
2023-01-23T17:11:28.781Z,3.47
2023-01-23T17:13:35.710Z,3.46
2023-01-23T17:15:38.576Z,3.44
2023-01-23T17:17:41.448Z,3.49
2023-01-23T17:19:45.240Z,3.40
2023-01-23T17:21:50.336Z,3.47
2023-01-23T17:23:53.197Z,3.59
2023-01-23T17:26:01.630Z,3.61
2023-01-23T17:28:12.863Z,3.47
2023-01-23T17:30:17.951Z,3.57
2023-01-23T17:32:30.324Z,3.49
2023-01-23T17:34:48.959Z,3.60
2023-01-23T17:36:55.429Z,3.58
2023-01-23T17:38:59.511Z,3.46
2023-01-23T17:41:04.558Z,3.51
2023-01-23T17:43:07.502Z,3.58
2023-01-23T17:45:15.049Z,3.45
2023-01-23T17:47:18.317Z,3.48
2023-01-23T17:49:29.414Z,3.46
2023-01-23T17:51:33.522Z,3.37
2023-01-23T17:53:37.708Z,3.30
2023-01-23T17:55:41.387Z,3.30
2023-01-23T17:57:44.375Z,3.27
2023-01-23T17:59:47.465Z,3.35
2023-01-23T18:01:50.278Z,3.26
2023-01-23T18:03:54.153Z,3.34
2023-01-23T18:05:56.905Z,3.31
2023-01-23T18:07:59.892Z,3.25
2023-01-23T18:10:04.543Z,3.30
2023-01-23T18:12:10.929Z,3.31
2023-01-23T18:14:31.773Z,3.33
2023-01-23T18:16:41.220Z,3.26
2023-01-23T18:18:46.664Z,3.27
2023-01-23T18:20:54.475Z,3.28
2023-01-23T18:22:58.247Z,3.15
2023-01-23T18:25:01.602Z,3.12
2023-01-23T18:27:18.468Z,3.09
2023-01-23T18:29:30.358Z,3.13
2023-01-23T18:31:42.148Z,3.19
2023-01-23T18:34:07.860Z,3.17
2023-01-23T18:36:22.158Z,3.06
2023-01-23T18:38:33.887Z,3.08
2023-01-23T18:40:43.712Z,3.18
2023-01-23T18:42:58.483Z,3.36
2023-01-23T18:45:05.106Z,3.21
2023-01-23T18:47:12.347Z,3.24
2023-01-23T18:49:27.761Z,3.27
2023-01-23T18:51:40.423Z,3.18
2023-01-23T18:53:53.663Z,3.13
2023-01-23T18:56:14.147Z,3.19
2023-01-23T18:58:31.885Z,3.03
2023-01-23T19:00:41.337Z,3.14
2023-01-23T19:02:50.232Z,3.22
2023-01-23T19:04:58.533Z,3.05
2023-01-23T19:07:01.898Z,3.09
2023-01-23T19:09:05.172Z,3.22
2023-01-23T19:11:25.985Z,3.16
2023-01-23T19:13:36.240Z,3.11
2023-01-23T19:15:47.917Z,3.08
2023-01-23T19:17:56.988Z,3.13
2023-01-23T19:20:06.760Z,3.15
2023-01-23T19:22:12.549Z,3.23
2023-01-23T19:24:19.464Z,3.18
2023-01-23T19:26:23.222Z,3.12
2023-01-23T19:28:26.540Z,3.18
2023-01-23T19:30:31.607Z,3.16
2023-01-23T19:32:35.476Z,3.17
2023-01-23T19:34:38.711Z,3.13
2023-01-23T19:36:41.571Z,3.06
2023-01-23T19:38:44.553Z,3.21
2023-01-23T19:40:47.445Z,3.21
2023-01-23T19:42:58.773Z,3.16
2023-01-23T19:45:15.753Z,3.12
2023-01-23T19:47:19.802Z,3.13
2023-01-23T19:49:22.674Z,3.19
2023-01-23T19:51:27.437Z,3.24
2023-01-23T19:53:30.193Z,3.21
2023-01-23T19:55:34.692Z,3.23
2023-01-23T19:57:37.545Z,3.14
2023-01-23T19:59:40.283Z,3.20
2023-01-23T20:01:46.618Z,3.23
2023-01-23T20:03:51.729Z,3.14
2023-01-23T20:05:55.700Z,3.17
2023-01-23T20:07:58.718Z,3.22
2023-01-23T20:10:01.632Z,3.16
2023-01-23T20:12:04.698Z,3.11
2023-01-23T20:14:07.542Z,3.10
2023-01-23T20:16:15.276Z,3.20
2023-01-23T20:18:18.204Z,3.22
2023-01-23T20:20:23.423Z,3.19
2023-01-23T20:22:26.474Z,3.18
2023-01-23T20:24:29.283Z,3.18
2023-01-23T20:26:32.051Z,3.14
2023-01-23T20:28:35.233Z,3.16
2023-01-23T20:30:38.079Z,3.06
2023-01-23T20:32:40.906Z,3.06
2023-01-23T20:34:43.787Z,3.06
2023-01-23T20:36:47.923Z,3.08
2023-01-23T20:38:50.767Z,3.01
2023-01-23T20:40:54.355Z,3.06
2023-01-23T20:42:57.321Z,3.03
2023-01-23T20:45:00.188Z,3.08
2023-01-23T20:47:03.233Z,3.07
2023-01-23T20:49:06.166Z,3.00
2023-01-23T20:51:10.135Z,3.01
2023-01-23T20:53:29.719Z,3.02
2023-01-23T20:55:32.527Z,2.94
2023-01-23T20:57:52.760Z,2.96
2023-01-23T20:59:55.545Z,3.03
2023-01-23T21:02:16.197Z,2.98
2023-01-23T21:04:19.137Z,2.96
2023-01-23T21:06:22.348Z,3.01
2023-01-23T21:08:26.471Z,3.03
2023-01-23T21:10:29.312Z,3.03
2023-01-23T21:12:32.220Z,3.11
2023-01-23T21:14:35.635Z,3.17
2023-01-23T21:16:38.501Z,3.05
2023-01-23T21:18:44.701Z,3.08
2023-01-23T21:20:47.539Z,3.11
2023-01-23T21:22:50.358Z,3.08
2023-01-23T21:24:54.523Z,3.10
2023-01-23T21:26:57.331Z,3.17
2023-01-23T21:29:00.250Z,3.22
2023-01-23T21:31:09.691Z,3.19
2023-01-23T21:33:12.620Z,3.10
2023-01-23T21:35:15.485Z,3.11
2023-01-23T21:37:18.961Z,3.10
2023-01-23T21:39:21.960Z,3.11
2023-01-23T21:41:26.187Z,3.17
2023-01-23T21:43:29.143Z,3.16
2023-01-23T21:45:31.908Z,3.21
2023-01-23T21:47:34.705Z,3.16
2023-01-23T21:49:37.531Z,3.13
2023-01-23T21:51:40.388Z,3.12
2023-01-23T21:53:45.449Z,3.18
2023-01-23T21:55:52.782Z,3.18
2023-01-23T21:57:56.922Z,3.18
2023-01-23T22:00:17.274Z,3.17
2023-01-23T22:02:20.153Z,3.13
2023-01-23T22:04:23.460Z,3.08
2023-01-23T22:06:26.242Z,3.13
2023-01-23T22:08:28.969Z,3.16
2023-01-23T22:10:32.426Z,3.22
2023-01-23T22:12:37.374Z,3.10
2023-01-23T22:14:41.939Z,3.02
2023-01-23T22:16:50.056Z,3.09
2023-01-23T22:18:53.457Z,3.06
2023-01-23T22:20:56.715Z,3.07
2023-01-23T22:22:59.526Z,3.10
2023-01-23T22:25:02.273Z,3.11
2023-01-23T22:27:05.263Z,3.18
2023-01-23T22:29:08.543Z,3.12
2023-01-23T22:31:14.834Z,3.26
2023-01-23T22:33:18.514Z,3.25
2023-01-23T22:35:21.463Z,3.19
2023-01-23T22:37:24.476Z,3.08
2023-01-23T22:39:27.229Z,3.17
2023-01-23T22:41:30.154Z,3.21
2023-01-23T22:43:33.125Z,3.22
2023-01-23T22:45:36.049Z,3.23
2023-01-23T22:47:40.196Z,3.19
2023-01-23T22:49:43.911Z,3.10
2023-01-23T22:51:46.730Z,3.07
2023-01-23T22:53:49.840Z,3.01
2023-01-23T22:55:52.829Z,2.99
2023-01-23T22:57:55.592Z,3.03
2023-01-23T22:59:58.361Z,3.12
2023-01-23T23:02:01.184Z,3.21
2023-01-23T23:04:05.937Z,3.20
2023-01-23T23:06:11.822Z,3.20
2023-01-23T23:08:14.618Z,3.28
2023-01-23T23:10:17.410Z,3.23
2023-01-23T23:12:20.189Z,3.27
2023-01-23T23:14:23.045Z,3.20
2023-01-23T23:16:27.963Z,3.17
2023-01-23T23:18:30.583Z,3.22
2023-01-23T23:20:35.217Z,3.14
2023-01-23T23:22:38.097Z,3.08
2023-01-23T23:24:40.909Z,3.18
2023-01-23T23:26:43.724Z,3.21
2023-01-23T23:28:46.521Z,3.25
2023-01-23T23:30:49.297Z,3.22
2023-01-23T23:32:52.070Z,3.25
2023-01-23T23:34:55.006Z,3.23
2023-01-23T23:36:59.134Z,3.25
2023-01-23T23:39:01.988Z,3.30
2023-01-23T23:41:06.205Z,3.27
2023-01-23T23:43:09.745Z,3.33
2023-01-23T23:45:12.691Z,3.32
2023-01-23T23:47:15.502Z,3.33
2023-01-23T23:49:18.364Z,3.29
2023-01-23T23:51:22.686Z,3.32
2023-01-23T23:53:27.005Z,3.29
2023-01-23T23:55:29.812Z,3.53
2023-01-23T23:57:32.594Z,3.44
2023-01-23T23:59:35.384Z,3.43
